Impacts TAF Board
For situational awareness. Not to be used for flight planning purposes.
IDs:

KBTR - Baton Rouge/Ryan Fld, LA, US

Issued at 0520 UTC 30 Jun 2022
Updated at 0521 UTC 30 Jun 2022
Potential Impact None Slight Moderate High
Time0453Z 30/06Z 30/07Z 30/08Z 30/09Z 30/10Z 30/11Z 30/12Z 30/13Z 30/14Z 30/15Z 30/16Z 30/17Z 30/18Z>>
Type OBS PRVL PRVL PRVL PRVL PRVL PRVL PRVL PRVL PRVL PRVL PRVL PRVL PRVL
VIS 10 >6 >6 >6 >6 >6 >6 >6 >6 >6 >6 >6 >6 >6
CIG -- 250 250 250 20 20 20 100 100 100 100 100 250 250
Cover CLR BKN BKN BKN BKN BKN BKN BKN BKN BKN BKN BKN BKN BKN
FltCat VFR VFR VFR VFR MVFR MVFR MVFR VFR VFR VFR VFR VFR VFR VFR
WX -- -- -- -- -- -- -- -- -- -- -- -- VCTS VCTS
WDir 80 30 30 30 VRB VRB VRB VRB VRB VRB VRB VRB VRB VRB
WSpd 4 4 4 4 0 0 0 3 3 3 3 3 6 6
WGst -- -- -- -- -- -- -- -- -- -- -- -- -- --
WSHgt -- -- -- -- -- -- -- -- -- -- -- -- -- --
WSDir -- -- -- -- -- -- -- -- -- -- -- -- -- --
WSSpd -- -- -- -- -- -- -- -- -- -- -- -- -- --
Raw TAF
KBTR 300520Z 3006/0106 03004KT P6SM SCT040 BKN250
  FM300900 00000KT P6SM BKN020
  FM301200 VRB03KT P6SM SCT025 BKN100
  FM301700 VRB06KT P6SM VCTS SCT040CB SCT080 BKN250
  FM010000 16006KT P6SM SCT035 BKN070


Raw METAR
KBTR 300453Z AUTO 08004KT 10SM CLR 24/24 A3010 RMK AO2 SLP192 T02390239
KBTR 300353Z 03004KT 10SM CLR 24/24 A3010 RMK AO2 SLP190 T02440239
KBTR 300253Z 07003KT 10SM CLR 25/24 A3008 RMK AO2 SLP186 T02500239 53003

METAR Board
Radar Display
Forecast Discussion
For situational awareness. Not to be used for flight planning purposes.